Elysian, MN (56028)

10:40 AM CST on December 04, 2016 (GMT -0600)
SW Janesville | | Change Station

Elev 1056 ft 44.11 °N, 93.73 °W | Updated 7 minutes ago

Overcast
Overcast
33.5 °F
Feels Like 34 °F
N
2.0
Wind Variable Wind from West
Gusts 5.0 mph

Today
High -- | Low -- °F
--% Chance of Precip.
Yesterday
High -- | Low -- °F
Precip. -- in
Pressure 29.89 in
Visibility 1.8 miles
Clouds Overcast 300 ft
Windchill 34 °F
Dew Point 33 °F
Humidity 97%
Rainfall 0.05 in
Snow Depth Not available.
7:33 AM 4:36 PM
Waxing Crescent, 23% visible
METAR KACQ 041634Z AUTO 21011KT 1 3/4SM BR OVC003 00/00 A2989 RMK AO2
Pressure 29.89 in
Visibility 1.8 miles
Clouds Overcast 300 ft
Windchill 34 °F
Dew Point 33 °F
Humidity 97%
Rainfall 0.05 in
Snow Depth Not available.
7:33 AM 4:36 PM
Waxing Crescent, 23% visible
METAR KACQ 041634Z AUTO 21011KT 1 3/4SM BR OVC003 00/00 A2989 RMK AO2

10-Day Weather Forecast

Almanac

Astronomy

Dec. 04, 2016 Rise Set
Actual Time
Civil Twilight
Nautical Twilight
Astronomical Twilight
Moon
Length of Visible Light
Length of Day
Tomorrow will be .
, % of the Moon is Illuminated

Today's Extremes

State Highs State Lows

Community

WunderPhotos

Upload Photos

1,955,622 photos uploaded!

WunderBlog® & News

Nearby

Air Quality

  Air Quality AQ Index Pollutant
Not available.

Snow Depth

Station Depth Elevation

Earthquake Activity

City Distance Mag. Time & Date
Minimum magnitude displayed is 2.5.

Coastal Water Temperatures

Place Temperature

Stations

Nearby Weather Stations

Station Location Temp. Windchill Dew Point Humidity Wind Precip. Elev Updated Type
                   

Watches & Warnings

There are currently no watches in effect.